sensor_id;sensor_type;location;lat;lon;timestamp;pressure;altitude;pressure_sealevel;temperature;humidity
69239;BME280;56349;51.816;-0.026;2023-07-13T00:01:55;100790.24;;;30.35;24.42
69239;BME280;56349;51.816;-0.026;2023-07-13T00:04:23;100790.88;;;30.67;24.46
69239;BME280;56349;51.816;-0.026;2023-07-13T00:06:47;100795.09;;;30.76;24.48
69239;BME280;56349;51.816;-0.026;2023-07-13T00:09:14;100792.21;;;30.83;24.48
69239;BME280;56349;51.816;-0.026;2023-07-13T00:11:38;100794.78;;;30.39;24.46
69239;BME280;56349;51.816;-0.026;2023-07-13T00:14:03;100793.13;;;30.44;24.45
69239;BME280;56349;51.816;-0.026;2023-07-13T00:16:29;100791.43;;;30.73;24.43
69239;BME280;56349;51.816;-0.026;2023-07-13T00:18:56;100791.13;;;30.79;24.42
69239;BME280;56349;51.816;-0.026;2023-07-13T00:21:22;100791.76;;;30.85;24.38
69239;BME280;56349;51.816;-0.026;2023-07-13T00:23:48;100795.22;;;30.69;24.34
69239;BME280;56349;51.816;-0.026;2023-07-13T00:26:13;100798.20;;;30.74;24.32
69239;BME280;56349;51.816;-0.026;2023-07-13T00:28:39;100795.93;;;30.79;24.29
69239;BME280;56349;51.816;-0.026;2023-07-13T00:31:04;100788.64;;;30.85;24.24
69239;BME280;56349;51.816;-0.026;2023-07-13T00:33:30;100786.39;;;30.87;24.21
69239;BME280;56349;51.816;-0.026;2023-07-13T00:35:56;100788.69;;;30.88;24.20
69239;BME280;56349;51.816;-0.026;2023-07-13T00:38:21;100786.32;;;30.90;24.20
69239;BME280;56349;51.816;-0.026;2023-07-13T00:40:47;100786.11;;;30.94;24.15
69239;BME280;56349;51.816;-0.026;2023-07-13T00:43:15;100785.01;;;30.96;24.14
69239;BME280;56349;51.816;-0.026;2023-07-13T00:48:05;100789.40;;;31.00;24.11
69239;BME280;56349;51.816;-0.026;2023-07-13T00:50:30;100789.72;;;31.02;24.09
69239;BME280;56349;51.816;-0.026;2023-07-13T00:52:56;100792.01;;;31.04;24.06
69239;BME280;56349;51.816;-0.026;2023-07-13T00:55:22;100794.27;;;31.02;24.07
69239;BME280;56349;51.816;-0.026;2023-07-13T00:57:47;100793.73;;;31.03;24.06
69239;BME280;56349;51.816;-0.026;2023-07-13T01:00:14;100796.20;;;31.05;24.05
69239;BME280;56349;51.816;-0.026;2023-07-13T01:02:40;100795.15;;;31.05;24.04
69239;BME280;56349;51.816;-0.026;2023-07-13T01:05:09;100793.37;;;31.05;24.03
69239;BME280;56349;51.816;-0.026;2023-07-13T01:07:30;100793.71;;;31.04;24.03
69239;BME280;56349;51.816;-0.026;2023-07-13T01:09:56;100790.58;;;31.05;24.02
69239;BME280;56349;51.816;-0.026;2023-07-13T01:12:22;100792.33;;;31.04;24.03
69239;BME280;56349;51.816;-0.026;2023-07-13T01:14:48;100791.95;;;31.02;24.03
69239;BME280;56349;51.816;-0.026;2023-07-13T01:17:14;100793.47;;;30.98;24.02
69239;BME280;56349;51.816;-0.026;2023-07-13T01:19:43;100796.38;;;31.09;24.03
69239;BME280;56349;51.816;-0.026;2023-07-13T01:22:09;100797.94;;;30.63;24.12
69239;BME280;56349;51.816;-0.026;2023-07-13T01:24:32;100802.34;;;30.33;24.28
69239;BME280;56349;51.816;-0.026;2023-07-13T01:26:58;100801.32;;;30.46;24.51
69239;BME280;56349;51.816;-0.026;2023-07-13T01:29:24;100801.52;;;30.12;24.76
69239;BME280;56349;51.816;-0.026;2023-07-13T01:31:50;100806.46;;;30.08;25.00
69239;BME280;56349;51.816;-0.026;2023-07-13T01:34:16;100806.17;;;29.64;25.22
69239;BME280;56349;51.816;-0.026;2023-07-13T01:36:42;100805.27;;;29.74;25.40
69239;BME280;56349;51.816;-0.026;2023-07-13T01:39:07;100804.55;;;29.69;25.51
69239;BME280;56349;51.816;-0.026;2023-07-13T01:41:33;100802.84;;;29.70;25.55
69239;BME280;56349;51.816;-0.026;2023-07-13T01:43:59;100799.63;;;29.72;25.60
69239;BME280;56349;51.816;-0.026;2023-07-13T01:46:25;100796.39;;;29.76;25.62
69239;BME280;56349;51.816;-0.026;2023-07-13T01:48:51;100792.55;;;29.82;25.61
69239;BME280;56349;51.816;-0.026;2023-07-13T01:51:19;100790.21;;;29.92;25.55
69239;BME280;56349;51.816;-0.026;2023-07-13T01:53:43;100792.49;;;29.81;25.51
69239;BME280;56349;51.816;-0.026;2023-07-13T01:56:10;100790.55;;;29.89;25.46
69239;BME280;56349;51.816;-0.026;2023-07-13T01:58:35;100792.24;;;29.96;25.42
69239;BME280;56349;51.816;-0.026;2023-07-13T02:01:01;100791.74;;;30.04;25.37
69239;BME280;56349;51.816;-0.026;2023-07-13T02:03:27;100789.85;;;30.11;25.31
69239;BME280;56349;51.816;-0.026;2023-07-13T02:05:53;100791.23;;;30.40;25.26
69239;BME280;56349;51.816;-0.026;2023-07-13T02:08:19;100788.58;;;30.25;25.20
69239;BME280;56349;51.816;-0.026;2023-07-13T02:10:45;100788.64;;;30.06;25.15
69239;BME280;56349;51.816;-0.026;2023-07-13T02:13:12;100786.67;;;30.40;25.09
69239;BME280;56349;51.816;-0.026;2023-07-13T02:15:39;100784.90;;;30.18;25.05
69239;BME280;56349;51.816;-0.026;2023-07-13T02:18:02;100781.37;;;30.49;25.01
69239;BME280;56349;51.816;-0.026;2023-07-13T02:20:28;100781.70;;;30.53;24.96
69239;BME280;56349;51.816;-0.026;2023-07-13T02:22:54;100781.12;;;30.57;24.93
69239;BME280;56349;51.816;-0.026;2023-07-13T02:25:20;100779.41;;;30.11;24.89
69239;BME280;56349;51.816;-0.026;2023-07-13T02:27:46;100777.59;;;30.37;24.86
69239;BME280;56349;51.816;-0.026;2023-07-13T02:30:13;100774.72;;;30.41;24.83
69239;BME280;56349;51.816;-0.026;2023-07-13T02:32:38;100772.70;;;30.72;24.78
69239;BME280;56349;51.816;-0.026;2023-07-13T02:35:05;100772.39;;;30.47;24.76
69239;BME280;56349;51.816;-0.026;2023-07-13T02:37:30;100775.69;;;30.28;24.73
69239;BME280;56349;51.816;-0.026;2023-07-13T02:39:56;100778.03;;;30.80;24.69
69239;BME280;56349;51.816;-0.026;2023-07-13T02:42:22;100776.70;;;30.33;24.67
69239;BME280;56349;51.816;-0.026;2023-07-13T02:44:48;100775.02;;;30.55;24.66
69239;BME280;56349;51.816;-0.026;2023-07-13T02:47:14;100774.27;;;30.33;24.65
69239;BME280;56349;51.816;-0.026;2023-07-13T02:49:40;100770.80;;;30.35;24.63
69239;BME280;56349;51.816;-0.026;2023-07-13T02:52:07;100771.81;;;30.60;24.61
69239;BME280;56349;51.816;-0.026;2023-07-13T02:54:33;100774.17;;;30.61;24.58
69239;BME280;56349;51.816;-0.026;2023-07-13T02:56:59;100779.79;;;30.39;24.58
69239;BME280;56349;51.816;-0.026;2023-07-13T02:59:24;100782.47;;;30.88;24.58
69239;BME280;56349;51.816;-0.026;2023-07-13T03:01:49;100783.75;;;30.60;24.57
69239;BME280;56349;51.816;-0.026;2023-07-13T03:04:14;100784.68;;;30.38;24.56
69239;BME280;56349;51.816;-0.026;2023-07-13T03:06:40;100787.14;;;30.61;24.54
69239;BME280;56349;51.816;-0.026;2023-07-13T03:09:06;100786.62;;;30.85;24.52
69239;BME280;56349;51.816;-0.026;2023-07-13T03:11:32;100790.71;;;30.56;24.46
69239;BME280;56349;51.816;-0.026;2023-07-13T03:13:57;100788.26;;;30.72;24.45
69239;BME280;56349;51.816;-0.026;2023-07-13T03:16:24;100788.41;;;30.52;24.54
69239;BME280;56349;51.816;-0.026;2023-07-13T03:18:49;100789.10;;;30.28;24.65
69239;BME280;56349;51.816;-0.026;2023-07-13T03:21:15;100786.40;;;30.02;24.78
69239;BME280;56349;51.816;-0.026;2023-07-13T03:23:41;100789.67;;;29.95;24.96
69239;BME280;56349;51.816;-0.026;2023-07-13T03:26:09;100790.40;;;29.67;25.14
69239;BME280;56349;51.816;-0.026;2023-07-13T03:28:33;100794.15;;;29.34;25.39
69239;BME280;56349;51.816;-0.026;2023-07-13T03:31:01;100796.13;;;29.33;25.63
69239;BME280;56349;51.816;-0.026;2023-07-13T03:33:23;100797.35;;;29.08;25.88
69239;BME280;56349;51.816;-0.026;2023-07-13T03:35:49;100798.09;;;28.88;26.12
69239;BME280;56349;51.816;-0.026;2023-07-13T03:38:15;100799.37;;;28.73;26.31
69239;BME280;56349;51.816;-0.026;2023-07-13T03:40:42;100802.63;;;28.66;26.46
69239;BME280;56349;51.816;-0.026;2023-07-13T03:43:07;100806.08;;;28.62;26.57
69239;BME280;56349;51.816;-0.026;2023-07-13T03:45:33;100807.03;;;28.60;26.67
69239;BME280;56349;51.816;-0.026;2023-07-13T03:47:59;100810.34;;;29.06;26.70
69239;BME280;56349;51.816;-0.026;2023-07-13T03:50:25;100809.65;;;28.88;26.69
69239;BME280;56349;51.816;-0.026;2023-07-13T03:52:51;100811.27;;;28.90;26.64
69239;BME280;56349;51.816;-0.026;2023-07-13T03:55:17;100811.88;;;28.65;26.63
69239;BME280;56349;51.816;-0.026;2023-07-13T03:57:43;100813.78;;;28.57;26.67
69239;BME280;56349;51.816;-0.026;2023-07-13T04:00:10;100813.25;;;28.91;26.72
69239;BME280;56349;51.816;-0.026;2023-07-13T04:02:35;100816.87;;;28.78;26.80
69239;BME280;56349;51.816;-0.026;2023-07-13T04:05:01;100819.58;;;28.18;26.91
69239;BME280;56349;51.816;-0.026;2023-07-13T04:07:27;100825.87;;;28.45;27.04
69239;BME280;56349;51.816;-0.026;2023-07-13T04:09:53;100824.53;;;28.28;27.17
69239;BME280;56349;51.816;-0.026;2023-07-13T04:12:19;100824.98;;;28.10;27.31
69239;BME280;56349;51.816;-0.026;2023-07-13T04:14:45;100829.18;;;27.91;27.48
69239;BME280;56349;51.816;-0.026;2023-07-13T04:17:11;100830.18;;;27.73;27.64
69239;BME280;56349;51.816;-0.026;2023-07-13T04:19:37;100829.37;;;27.84;27.80
69239;BME280;56349;51.816;-0.026;2023-07-13T04:22:03;100831.12;;;27.91;27.94
69239;BME280;56349;51.816;-0.026;2023-07-13T04:24:28;100837.25;;;27.77;28.07
69239;BME280;56349;51.816;-0.026;2023-07-13T04:26:54;100840.10;;;27.61;28.25
69239;BME280;56349;51.816;-0.026;2023-07-13T04:29:20;100843.05;;;27.47;28.40
69239;BME280;56349;51.816;-0.026;2023-07-13T04:31:47;100845.52;;;27.34;28.54
69239;BME280;56349;51.816;-0.026;2023-07-13T04:34:12;100845.64;;;27.20;28.63
69239;BME280;56349;51.816;-0.026;2023-07-13T04:36:37;100845.36;;;27.34;28.79
69239;BME280;56349;51.816;-0.026;2023-07-13T04:39:03;100849.92;;;26.94;28.95
69239;BME280;56349;51.816;-0.026;2023-07-13T04:41:29;100848.97;;;27.10;29.05
69239;BME280;56349;51.816;-0.026;2023-07-13T04:43:55;100846.61;;;27.20;29.19
69239;BME280;56349;51.816;-0.026;2023-07-13T04:46:21;100846.36;;;27.09;29.32
69239;BME280;56349;51.816;-0.026;2023-07-13T04:48:49;100845.69;;;26.99;29.42
69239;BME280;56349;51.816;-0.026;2023-07-13T04:51:13;100848.03;;;26.71;29.50
69239;BME280;56349;51.816;-0.026;2023-07-13T04:53:39;100847.80;;;26.62;29.60
69239;BME280;56349;51.816;-0.026;2023-07-13T04:56:05;100852.09;;;26.54;29.74
69239;BME280;56349;51.816;-0.026;2023-07-13T04:58:32;100847.45;;;26.67;29.83
69239;BME280;56349;51.816;-0.026;2023-07-13T05:01:00;100848.01;;;26.60;29.91
69239;BME280;56349;51.816;-0.026;2023-07-13T05:03:23;100850.12;;;26.54;29.98
69239;BME280;56349;51.816;-0.026;2023-07-13T05:05:55;100852.59;;;26.68;30.07
69239;BME280;56349;51.816;-0.026;2023-07-13T05:08:15;100853.65;;;26.39;30.13
69239;BME280;56349;51.816;-0.026;2023-07-13T05:10:40;100853.20;;;26.15;30.20
69239;BME280;56349;51.816;-0.026;2023-07-13T05:13:06;100856.46;;;26.35;30.20
69239;BME280;56349;51.816;-0.026;2023-07-13T05:15:33;100859.34;;;26.26;30.31
69239;BME280;56349;51.816;-0.026;2023-07-13T05:17:58;100863.44;;;26.21;30.45
69239;BME280;56349;51.816;-0.026;2023-07-13T05:20:24;100864.65;;;26.17;30.50
69239;BME280;56349;51.816;-0.026;2023-07-13T05:22:50;100867.52;;;26.11;30.56
69239;BME280;56349;51.816;-0.026;2023-07-13T05:25:15;100868.71;;;26.05;30.67
69239;BME280;56349;51.816;-0.026;2023-07-13T05:27:40;100872.53;;;25.99;30.74
69239;BME280;56349;51.816;-0.026;2023-07-13T05:30:07;100872.19;;;25.95;30.79
69239;BME280;56349;51.816;-0.026;2023-07-13T05:32:33;100875.77;;;25.93;30.83
69239;BME280;56349;51.816;-0.026;2023-07-13T05:34:58;100877.67;;;25.90;30.85
69239;BME280;56349;51.816;-0.026;2023-07-13T05:37:24;100877.04;;;25.64;30.87
69239;BME280;56349;51.816;-0.026;2023-07-13T05:39:50;100877.82;;;26.06;30.91
69239;BME280;56349;51.816;-0.026;2023-07-13T05:42:16;100880.74;;;25.80;30.93
69239;BME280;56349;51.816;-0.026;2023-07-13T05:44:42;100883.45;;;25.99;30.98
69239;BME280;56349;51.816;-0.026;2023-07-13T05:47:08;100890.38;;;25.71;31.00
69239;BME280;56349;51.816;-0.026;2023-07-13T05:49:34;100897.31;;;25.69;31.04
69239;BME280;56349;51.816;-0.026;2023-07-13T05:51:59;100898.57;;;25.88;31.08
69239;BME280;56349;51.816;-0.026;2023-07-13T05:54:26;100899.24;;;25.86;31.09
69239;BME280;56349;51.816;-0.026;2023-07-13T05:56:51;100901.40;;;25.84;31.13
69239;BME280;56349;51.816;-0.026;2023-07-13T05:59:17;100902.42;;;25.80;31.18
69239;BME280;56349;51.816;-0.026;2023-07-13T06:01:42;100909.15;;;25.78;31.21
69239;BME280;56349;51.816;-0.026;2023-07-13T06:04:08;100915.93;;;25.75;31.25
69239;BME280;56349;51.816;-0.026;2023-07-13T06:06:34;100917.58;;;25.71;31.28
69239;BME280;56349;51.816;-0.026;2023-07-13T06:09:00;100918.03;;;25.96;31.32
69239;BME280;56349;51.816;-0.026;2023-07-13T06:11:28;100918.18;;;25.97;31.33
69239;BME280;56349;51.816;-0.026;2023-07-13T06:13:56;100924.16;;;25.67;31.37
69239;BME280;56349;51.816;-0.026;2023-07-13T06:16:18;100921.84;;;25.90;31.43
69239;BME280;56349;51.816;-0.026;2023-07-13T06:18:44;100924.73;;;25.92;31.45
69239;BME280;56349;51.816;-0.026;2023-07-13T06:21:12;100931.88;;;25.66;31.46
69239;BME280;56349;51.816;-0.026;2023-07-13T06:23:37;100936.71;;;25.44;31.46
69239;BME280;56349;51.816;-0.026;2023-07-13T06:26:02;100941.08;;;25.94;31.46
69239;BME280;56349;51.816;-0.026;2023-07-13T06:28:28;100941.35;;;25.91;31.52
69239;BME280;56349;51.816;-0.026;2023-07-13T06:30:53;100941.74;;;25.65;31.63
69239;BME280;56349;51.816;-0.026;2023-07-13T06:33:19;100944.21;;;25.93;31.86
69239;BME280;56349;51.816;-0.026;2023-07-13T06:35:46;100945.57;;;26.01;32.20
69239;BME280;56349;51.816;-0.026;2023-07-13T06:38:11;100946.14;;;25.87;32.47
69239;BME280;56349;51.816;-0.026;2023-07-13T06:40:37;100949.53;;;26.09;32.61
69239;BME280;56349;51.816;-0.026;2023-07-13T06:43:03;100954.79;;;26.34;33.19
69239;BME280;56349;51.816;-0.026;2023-07-13T06:45:29;100952.72;;;26.17;33.22
69239;BME280;56349;51.816;-0.026;2023-07-13T06:47:55;100952.83;;;26.21;32.94
69239;BME280;56349;51.816;-0.026;2023-07-13T06:50:20;100949.33;;;27.03;32.22
69239;BME280;56349;51.816;-0.026;2023-07-13T06:52:46;100951.44;;;27.15;32.04
69239;BME280;56349;51.816;-0.026;2023-07-13T06:55:12;100955.70;;;27.21;31.47
69239;BME280;56349;51.816;-0.026;2023-07-13T06:57:38;100959.45;;;27.54;31.12
69239;BME280;56349;51.816;-0.026;2023-07-13T07:00:06;100957.49;;;27.85;30.62
69239;BME280;56349;51.816;-0.026;2023-07-13T07:02:30;100959.44;;;27.67;30.16
69239;BME280;56349;51.816;-0.026;2023-07-13T07:04:56;100955.68;;;28.22;29.87
69239;BME280;56349;51.816;-0.026;2023-07-13T07:07:24;100957.66;;;28.23;29.49
69239;BME280;56349;51.816;-0.026;2023-07-13T07:09:47;100953.11;;;28.52;29.04
69239;BME280;56349;51.816;-0.026;2023-07-13T07:12:13;100954.23;;;28.34;28.63
69239;BME280;56349;51.816;-0.026;2023-07-13T07:14:39;100954.16;;;28.58;28.32
69239;BME280;56349;51.816;-0.026;2023-07-13T07:17:05;100955.11;;;28.77;28.00
69239;BME280;56349;51.816;-0.026;2023-07-13T07:19:32;100954.37;;;28.99;27.72
69239;BME280;56349;51.816;-0.026;2023-07-13T07:21:58;100955.80;;;29.16;27.57
69239;BME280;56349;51.816;-0.026;2023-07-13T07:24:24;100957.76;;;29.30;27.40
69239;BME280;56349;51.816;-0.026;2023-07-13T07:26:50;100961.99;;;29.19;27.23
69239;BME280;56349;51.816;-0.026;2023-07-13T07:29:16;100967.67;;;29.59;27.00
69239;BME280;56349;51.816;-0.026;2023-07-13T07:31:42;100969.19;;;29.72;26.79
69239;BME280;56349;51.816;-0.026;2023-07-13T07:34:08;100971.10;;;29.82;26.62
69239;BME280;56349;51.816;-0.026;2023-07-13T07:36:34;100972.83;;;29.65;26.46
69239;BME280;56349;51.816;-0.026;2023-07-13T07:39:00;100975.44;;;30.01;26.33
69239;BME280;56349;51.816;-0.026;2023-07-13T07:41:26;100975.96;;;29.85;26.18
69239;BME280;56349;51.816;-0.026;2023-07-13T07:43:52;100972.01;;;29.70;26.07
69239;BME280;56349;51.816;-0.026;2023-07-13T07:46:18;100976.32;;;29.81;25.93
69239;BME280;56349;51.816;-0.026;2023-07-13T07:48:45;100978.21;;;29.89;25.84
69239;BME280;56349;51.816;-0.026;2023-07-13T07:51:11;100978.79;;;29.97;25.74
69239;BME280;56349;51.816;-0.026;2023-07-13T07:53:37;100979.40;;;30.04;25.67
69239;BME280;56349;51.816;-0.026;2023-07-13T07:58:42;100981.72;;;30.19;25.52
69239;BME280;56349;51.816;-0.026;2023-07-13T08:03:46;100986.29;;;30.16;25.29
69239;BME280;56349;51.816;-0.026;2023-07-13T08:05:45;100986.28;;;30.03;25.20
69239;BME280;56349;51.816;-0.026;2023-07-13T08:08:11;100989.87;;;30.33;25.10
69239;BME280;56349;51.816;-0.026;2023-07-13T08:10:37;100993.08;;;30.38;25.07
69239;BME280;56349;51.816;-0.026;2023-07-13T08:13:03;100989.36;;;30.18;25.07
69239;BME280;56349;51.816;-0.026;2023-07-13T08:15:29;100993.35;;;30.72;25.07
69239;BME280;56349;51.816;-0.026;2023-07-13T08:17:55;100995.98;;;30.74;25.16
69239;BME280;56349;51.816;-0.026;2023-07-13T08:20:21;100994.86;;;30.78;25.23
69239;BME280;56349;51.816;-0.026;2023-07-13T08:22:47;100994.95;;;30.35;25.28
69239;BME280;56349;51.816;-0.026;2023-07-13T08:25:13;100992.85;;;30.88;25.32
69239;BME280;56349;51.816;-0.026;2023-07-13T08:27:39;100991.07;;;30.41;25.35
69239;BME280;56349;51.816;-0.026;2023-07-13T08:30:06;100993.46;;;30.44;25.39
69239;BME280;56349;51.816;-0.026;2023-07-13T08:32:31;100993.06;;;30.70;25.40
69239;BME280;56349;51.816;-0.026;2023-07-13T08:34:57;100998.84;;;30.97;25.42
69239;BME280;56349;51.816;-0.026;2023-07-13T08:37:23;100998.60;;;30.52;25.33
69239;BME280;56349;51.816;-0.026;2023-07-13T08:39:49;100994.71;;;30.55;25.31
69239;BME280;56349;51.816;-0.026;2023-07-13T08:44:51;100992.78;;;30.63;25.34
69239;BME280;56349;51.816;-0.026;2023-07-13T08:47:07;100992.09;;;30.69;25.31
69239;BME280;56349;51.816;-0.026;2023-07-13T08:49:33;100988.11;;;30.72;25.26
69239;BME280;56349;51.816;-0.026;2023-07-13T08:52:04;100991.51;;;30.69;25.25
69239;BME280;56349;51.816;-0.026;2023-07-13T08:54:35;100993.23;;;30.69;25.23
69239;BME280;56349;51.816;-0.026;2023-07-13T08:56:50;100993.18;;;30.69;25.19
69239;BME280;56349;51.816;-0.026;2023-07-13T08:59:17;100994.80;;;30.67;25.16
69239;BME280;56349;51.816;-0.026;2023-07-13T09:01:53;100991.86;;;30.65;25.12
69239;BME280;56349;51.816;-0.026;2023-07-13T09:04:11;100991.30;;;30.59;25.08
69239;BME280;56349;51.816;-0.026;2023-07-13T09:06:40;100993.31;;;30.66;25.07
69239;BME280;56349;51.816;-0.026;2023-07-13T09:09:00;101000.48;;;30.68;25.14
69239;BME280;56349;51.816;-0.026;2023-07-13T09:11:34;100997.39;;;30.13;25.25
69239;BME280;56349;51.816;-0.026;2023-07-13T09:13:54;100995.27;;;30.29;25.44
69239;BME280;56349;51.816;-0.026;2023-07-13T09:16:14;100990.96;;;29.77;25.67
69239;BME280;56349;51.816;-0.026;2023-07-13T09:18:43;100987.75;;;29.76;25.90
69239;BME280;56349;51.816;-0.026;2023-07-13T09:21:10;100991.37;;;29.64;26.06
69239;BME280;56349;51.816;-0.026;2023-07-13T09:23:31;100989.55;;;29.56;26.19
69239;BME280;56349;51.816;-0.026;2023-07-13T09:26:02;100988.57;;;29.81;26.25
69239;BME280;56349;51.816;-0.026;2023-07-13T09:28:25;100989.36;;;29.55;26.29
69239;BME280;56349;51.816;-0.026;2023-07-13T09:30:52;100992.60;;;29.39;26.27
69239;BME280;56349;51.816;-0.026;2023-07-13T09:33:14;100997.19;;;29.94;26.25
69239;BME280;56349;51.816;-0.026;2023-07-13T09:35:40;100991.26;;;29.71;26.19
69239;BME280;56349;51.816;-0.026;2023-07-13T09:38:13;100989.07;;;29.71;26.15
69239;BME280;56349;51.816;-0.026;2023-07-13T09:40:42;100987.85;;;29.66;26.12
69239;BME280;56349;51.816;-0.026;2023-07-13T09:42:56;100988.69;;;29.84;26.12
69239;BME280;56349;51.816;-0.026;2023-07-13T09:45:28;100991.74;;;29.42;26.18
69239;BME280;56349;51.816;-0.026;2023-07-13T09:47:48;100989.42;;;29.49;26.31
69239;BME280;56349;51.816;-0.026;2023-07-13T09:50:16;100984.80;;;29.29;26.42
69239;BME280;56349;51.816;-0.026;2023-07-13T09:52:42;100991.24;;;29.09;26.56
69239;BME280;56349;51.816;-0.026;2023-07-13T09:57:31;100991.84;;;29.11;26.89
69239;BME280;56349;51.816;-0.026;2023-07-13T09:59:57;100989.39;;;28.93;27.05
69239;BME280;56349;51.816;-0.026;2023-07-13T10:02:25;100988.68;;;28.52;27.18
69239;BME280;56349;51.816;-0.026;2023-07-13T10:04:57;100990.58;;;28.56;27.35
69239;BME280;56349;51.816;-0.026;2023-07-13T10:07:14;100988.61;;;28.64;27.54
69239;BME280;56349;51.816;-0.026;2023-07-13T10:09:40;100989.63;;;28.46;27.72
69239;BME280;56349;51.816;-0.026;2023-07-13T10:12:13;100993.35;;;28.06;27.86
69239;BME280;56349;51.816;-0.026;2023-07-13T10:14:32;100994.32;;;28.15;28.03
69239;BME280;56349;51.816;-0.026;2023-07-13T10:17:00;100990.73;;;27.99;28.19
69239;BME280;56349;51.816;-0.026;2023-07-13T10:19:26;101000.31;;;28.07;28.33
69239;BME280;56349;51.816;-0.026;2023-07-13T10:21:52;100995.86;;;27.96;28.48
69239;BME280;56349;51.816;-0.026;2023-07-13T10:24:18;100993.37;;;27.60;28.60
69239;BME280;56349;51.816;-0.026;2023-07-13T10:26:47;100993.27;;;27.72;28.71
69239;BME280;56349;51.816;-0.026;2023-07-13T10:29:11;100995.29;;;27.61;28.83
69239;BME280;56349;51.816;-0.026;2023-07-13T10:31:32;100993.43;;;27.52;28.95
69239;BME280;56349;51.816;-0.026;2023-07-13T10:33:58;100997.93;;;27.40;29.05
69239;BME280;56349;51.816;-0.026;2023-07-13T10:36:31;100991.66;;;27.30;29.18
69239;BME280;56349;51.816;-0.026;2023-07-13T10:38:51;100992.24;;;27.23;29.27
69239;BME280;56349;51.816;-0.026;2023-07-13T10:41:18;100982.59;;;27.16;29.35
69239;BME280;56349;51.816;-0.026;2023-07-13T10:43:42;100978.25;;;27.08;29.43
69239;BME280;56349;51.816;-0.026;2023-07-13T10:46:08;100977.71;;;27.02;29.52
69239;BME280;56349;51.816;-0.026;2023-07-13T10:48:31;100982.36;;;26.95;29.61
69239;BME280;56349;51.816;-0.026;2023-07-13T10:50:57;100982.96;;;26.93;29.65
69239;BME280;56349;51.816;-0.026;2023-07-13T10:53:28;100986.79;;;27.14;29.70
69239;BME280;56349;51.816;-0.026;2023-07-13T10:55:55;100992.45;;;27.07;29.80
69239;BME280;56349;51.816;-0.026;2023-07-13T10:58:20;100996.74;;;27.02;29.87
69239;BME280;56349;51.816;-0.026;2023-07-13T11:00:46;100993.73;;;26.77;29.92
69239;BME280;56349;51.816;-0.026;2023-07-13T11:03:04;100994.74;;;26.77;29.98
69239;BME280;56349;51.816;-0.026;2023-07-13T11:05:31;100999.13;;;26.73;30.07
69239;BME280;56349;51.816;-0.026;2023-07-13T11:12:52;100992.66;;;26.91;30.23
69239;BME280;56349;51.816;-0.026;2023-07-13T11:15:13;100996.06;;;26.89;30.30
69239;BME280;56349;51.816;-0.026;2023-07-13T11:17:47;100992.19;;;27.10;30.41
69239;BME280;56349;51.816;-0.026;2023-07-13T11:20:10;101002.79;;;26.88;30.57
69239;BME280;56349;51.816;-0.026;2023-07-13T11:25:00;100999.57;;;27.36;30.60
69239;BME280;56349;51.816;-0.026;2023-07-13T11:29:45;100994.43;;;27.32;30.35
69239;BME280;56349;51.816;-0.026;2023-07-13T11:34:39;100996.86;;;27.87;30.02
69239;BME280;56349;51.816;-0.026;2023-07-13T11:37:03;100991.92;;;27.97;29.76
69239;BME280;56349;51.816;-0.026;2023-07-13T11:39:30;100994.14;;;28.02;29.48
69239;BME280;56349;51.816;-0.026;2023-07-13T11:41:56;100996.34;;;28.36;29.19
69239;BME280;56349;51.816;-0.026;2023-07-13T11:44:21;100991.34;;;28.64;28.91
69239;BME280;56349;51.816;-0.026;2023-07-13T11:46:47;100998.25;;;28.48;28.61
69239;BME280;56349;51.816;-0.026;2023-07-13T11:49:15;101002.36;;;28.74;28.36
69239;BME280;56349;51.816;-0.026;2023-07-13T11:51:37;101002.48;;;29.01;28.01
69239;BME280;56349;51.816;-0.026;2023-07-13T11:54:13;101002.09;;;29.24;27.75
69239;BME280;56349;51.816;-0.026;2023-07-13T11:56:28;101000.17;;;29.17;27.45
69239;BME280;56349;51.816;-0.026;2023-07-13T11:58:55;100999.42;;;29.39;27.15
69239;BME280;56349;51.816;-0.026;2023-07-13T12:01:21;100997.55;;;29.60;27.00
69239;BME280;56349;51.816;-0.026;2023-07-13T12:03:44;100999.47;;;29.56;26.78
69239;BME280;56349;51.816;-0.026;2023-07-13T12:08:38;100994.78;;;29.86;26.49
69239;BME280;56349;51.816;-0.026;2023-07-13T12:11:04;100985.68;;;30.02;26.34
69239;BME280;56349;51.816;-0.026;2023-07-13T12:13:28;100986.47;;;30.14;26.16
69239;BME280;56349;51.816;-0.026;2023-07-13T12:15:52;100991.47;;;30.25;26.06
69239;BME280;56349;51.816;-0.026;2023-07-13T12:18:20;100987.28;;;30.38;25.87
69239;BME280;56349;51.816;-0.026;2023-07-13T12:20:45;100984.23;;;30.50;25.72
69239;BME280;56349;51.816;-0.026;2023-07-13T12:23:20;100980.41;;;30.60;25.61
69239;BME280;56349;51.816;-0.026;2023-07-13T12:25:35;100980.21;;;30.69;25.54
69239;BME280;56349;51.816;-0.026;2023-07-13T12:30:28;100965.39;;;30.39;25.26
69239;BME280;56349;51.816;-0.026;2023-07-13T12:32:56;100964.67;;;30.72;25.10
69239;BME280;56349;51.816;-0.026;2023-07-13T12:35:17;100971.56;;;31.06;24.91
69239;BME280;56349;51.816;-0.026;2023-07-13T12:37:42;100968.08;;;31.11;24.92
69239;BME280;56349;51.816;-0.026;2023-07-13T12:40:13;100958.09;;;30.68;24.85
69239;BME280;56349;51.816;-0.026;2023-07-13T12:42:34;100964.79;;;30.75;24.75
69239;BME280;56349;51.816;-0.026;2023-07-13T12:45:02;100963.22;;;31.31;24.60
69239;BME280;56349;51.816;-0.026;2023-07-13T12:47:25;100966.13;;;30.87;24.46
69239;BME280;56349;51.816;-0.026;2023-07-13T12:49:55;100966.99;;;30.91;24.47
69239;BME280;56349;51.816;-0.026;2023-07-13T12:52:20;100965.35;;;30.95;24.40
69239;BME280;56349;51.816;-0.026;2023-07-13T12:54:51;100965.18;;;31.02;24.30
69239;BME280;56349;51.816;-0.026;2023-07-13T12:57:13;100963.03;;;31.07;24.19
69239;BME280;56349;51.816;-0.026;2023-07-13T12:59:32;100963.59;;;31.11;23.40
69239;BME280;56349;51.816;-0.026;2023-07-13T13:01:59;100962.83;;;31.19;23.53